createdAt,value
2022-09-04T00:02:32.800Z,17.39
2022-09-04T00:05:43.572Z,17.32
2022-09-04T00:08:57.077Z,17.27
2022-09-04T00:12:08.954Z,17.27
2022-09-04T00:15:23.109Z,17.39
2022-09-04T00:18:25.402Z,17.28
2022-09-04T00:21:35.278Z,17.18
2022-09-04T00:24:40.189Z,17.13
2022-09-04T00:27:46.353Z,17.08
2022-09-04T00:31:00.840Z,17.11
2022-09-04T00:34:14.547Z,17.09
2022-09-04T00:37:22.110Z,17.00
2022-09-04T00:40:46.659Z,17.07
2022-09-04T00:44:07.599Z,16.96
2022-09-04T00:47:25.986Z,16.91
2022-09-04T00:51:05.045Z,17.03
2022-09-04T00:54:36.993Z,16.96
2022-09-04T00:57:57.659Z,16.86
2022-09-04T01:01:00.384Z,16.79
2022-09-04T01:04:26.823Z,16.78
2022-09-04T01:07:43.897Z,16.78
2022-09-04T01:11:01.829Z,16.65
2022-09-04T01:14:29.745Z,16.84
2022-09-04T01:17:43.975Z,16.87
2022-09-04T01:21:13.448Z,17.05
2022-09-04T01:24:55.757Z,16.96
2022-09-04T01:28:05.112Z,16.82
2022-09-04T01:31:28.542Z,16.70
2022-09-04T01:34:36.005Z,16.66
2022-09-04T01:37:55.645Z,16.70
2022-09-04T01:41:13.350Z,16.80
2022-09-04T01:44:15.139Z,16.69
2022-09-04T01:47:21.530Z,16.86
2022-09-04T01:50:26.635Z,16.77
2022-09-04T01:53:33.007Z,16.78
2022-09-04T01:56:48.475Z,16.74
2022-09-04T01:59:56.212Z,16.81
2022-09-04T02:03:25.330Z,16.75
2022-09-04T02:06:43.325Z,16.58
2022-09-04T02:10:03.753Z,16.60
2022-09-04T02:13:15.145Z,16.41
2022-09-04T02:16:37.234Z,16.33
2022-09-04T02:20:01.783Z,16.36
2022-09-04T02:23:20.756Z,16.40
2022-09-04T02:27:00.834Z,16.49
2022-09-04T02:30:10.420Z,16.30
2022-09-04T02:33:26.829Z,16.44
2022-09-04T02:36:38.632Z,16.51
2022-09-04T02:39:55.578Z,16.58
2022-09-04T02:43:06.185Z,16.54
2022-09-04T02:46:21.828Z,16.55
2022-09-04T02:49:29.551Z,16.55
2022-09-04T02:53:05.228Z,16.45
2022-09-04T02:56:18.989Z,16.32
2022-09-04T02:59:28.969Z,15.95
2022-09-04T03:02:38.515Z,15.97
2022-09-04T03:06:02.274Z,15.90
2022-09-04T03:09:09.378Z,15.80
2022-09-04T03:12:44.894Z,15.81
2022-09-04T03:15:49.611Z,15.79
2022-09-04T03:19:18.525Z,15.85
2022-09-04T03:22:27.197Z,15.77
2022-09-04T03:25:38.459Z,15.87
2022-09-04T03:28:55.293Z,15.43
2022-09-04T03:32:16.926Z,15.65
2022-09-04T03:35:44.171Z,16.05
2022-09-04T03:38:51.969Z,16.23
2022-09-04T03:42:20.649Z,16.28
2022-09-04T03:45:36.089Z,16.06
2022-09-04T03:48:53.640Z,15.91
2022-09-04T03:52:01.498Z,15.81
2022-09-04T03:55:38.820Z,15.74
2022-09-04T03:59:03.979Z,15.68
2022-09-04T04:02:37.713Z,15.51
2022-09-04T04:06:18.678Z,15.28
2022-09-04T04:09:40.474Z,15.27
2022-09-04T04:13:04.375Z,15.36
2022-09-04T04:16:32.086Z,15.37
2022-09-04T04:20:11.718Z,15.54
2022-09-04T04:23:47.565Z,15.50
2022-09-04T04:27:13.917Z,15.22
2022-09-04T04:30:17.694Z,15.25
2022-09-04T04:33:42.545Z,15.17
2022-09-04T04:37:00.388Z,15.24
2022-09-04T04:40:15.045Z,15.19
2022-09-04T04:43:41.755Z,15.08
2022-09-04T04:46:58.606Z,14.96
2022-09-04T04:50:15.886Z,14.91
2022-09-04T04:53:58.409Z,14.96
2022-09-04T04:57:44.451Z,14.86
2022-09-04T05:00:49.132Z,14.90
2022-09-04T05:04:06.795Z,14.80
2022-09-04T05:07:14.814Z,14.87
2022-09-04T05:10:19.597Z,14.95
2022-09-04T05:13:36.151Z,14.97
2022-09-04T05:16:56.082Z,15.06
2022-09-04T05:20:35.414Z,15.15
2022-09-04T05:23:59.041Z,15.26
2022-09-04T05:27:39.641Z,15.31
2022-09-04T05:31:09.482Z,15.40
2022-09-04T05:34:50.252Z,15.58
2022-09-04T05:38:22.243Z,15.71
2022-09-04T05:42:16.852Z,15.69
2022-09-04T05:45:28.823Z,15.59
2022-09-04T05:48:51.075Z,15.63
2022-09-04T05:52:10.599Z,15.67
2022-09-04T05:55:12.228Z,15.68
2022-09-04T05:58:47.734Z,15.73
2022-09-04T06:02:14.362Z,15.81
2022-09-04T06:05:31.281Z,15.70
2022-09-04T06:08:50.011Z,15.74
2022-09-04T06:12:23.021Z,15.72
2022-09-04T06:15:44.268Z,15.87
2022-09-04T06:19:06.229Z,16.03
2022-09-04T06:22:20.113Z,16.09
2022-09-04T06:25:31.927Z,16.25
2022-09-04T06:29:11.109Z,16.37
2022-09-04T06:32:44.021Z,16.47
2022-09-04T06:36:05.792Z,16.61
2022-09-04T06:39:22.168Z,16.72
2022-09-04T06:42:35.296Z,16.84
2022-09-04T06:45:50.432Z,16.83
2022-09-04T06:49:10.843Z,16.97
2022-09-04T06:52:25.288Z,17.10
2022-09-04T06:55:50.761Z,17.30
2022-09-04T06:59:04.460Z,17.27
2022-09-04T07:02:32.066Z,17.47
2022-09-04T07:05:51.393Z,17.51
2022-09-04T07:09:26.183Z,17.67
2022-09-04T07:12:49.362Z,17.86
2022-09-04T07:16:15.433Z,18.17
2022-09-04T07:19:24.890Z,18.46
2022-09-04T07:22:46.520Z,18.82
2022-09-04T07:25:53.828Z,18.97
2022-09-04T07:29:26.142Z,19.12
2022-09-04T07:32:36.556Z,19.55
2022-09-04T07:35:48.968Z,19.86
2022-09-04T07:39:08.437Z,19.92
2022-09-04T07:42:18.027Z,20.52
2022-09-04T07:45:30.115Z,20.72
2022-09-04T07:48:43.866Z,20.84
2022-09-04T07:52:07.652Z,20.99
2022-09-04T07:55:28.197Z,21.05
2022-09-04T07:58:50.532Z,21.20
2022-09-04T08:02:07.533Z,21.36
2022-09-04T08:05:31.626Z,21.10
2022-09-04T08:08:48.478Z,21.25
2022-09-04T08:12:25.716Z,21.36
2022-09-04T08:15:56.052Z,21.51
2022-09-04T08:19:15.706Z,21.76
2022-09-04T08:22:43.681Z,21.98
2022-09-04T08:26:42.921Z,21.93
2022-09-04T08:29:44.591Z,22.14
2022-09-04T08:33:13.047Z,22.25
2022-09-04T08:36:31.628Z,22.54
2022-09-04T08:40:15.270Z,22.43
2022-09-04T08:43:35.588Z,22.40
2022-09-04T08:46:53.007Z,22.57
2022-09-04T08:50:23.922Z,22.72
2022-09-04T08:53:52.651Z,22.40
2022-09-04T08:57:28.657Z,23.33
2022-09-04T09:00:42.715Z,23.36
2022-09-04T09:04:14.722Z,23.23
2022-09-04T09:07:50.356Z,23.41
2022-09-04T09:11:10.772Z,23.75
2022-09-04T09:14:42.533Z,23.56
2022-09-04T09:18:30.300Z,23.73
2022-09-04T09:21:49.346Z,24.15
2022-09-04T09:25:07.210Z,24.29
2022-09-04T09:29:00.187Z,24.64
2022-09-04T09:32:33.022Z,24.48
2022-09-04T09:35:54.684Z,24.68
2022-09-04T09:39:27.579Z,24.99
2022-09-04T09:42:57.392Z,24.87
2022-09-04T09:46:30.291Z,25.09
2022-09-04T09:50:20.722Z,24.93
2022-09-04T09:53:47.279Z,25.11
2022-09-04T09:57:07.831Z,25.56
2022-09-04T10:00:16.959Z,25.67
2022-09-04T10:03:32.497Z,25.61
2022-09-04T10:07:11.017Z,25.55
2022-09-04T10:10:37.707Z,25.13
2022-09-04T10:14:17.144Z,25.49
2022-09-04T10:17:56.576Z,25.51
2022-09-04T10:21:17.110Z,25.75
2022-09-04T10:25:03.402Z,25.86
2022-09-04T10:28:16.740Z,26.13
2022-09-04T10:31:30.654Z,26.31
2022-09-04T10:34:57.839Z,26.72
2022-09-04T10:38:13.695Z,26.66
2022-09-04T10:41:35.335Z,26.84
2022-09-04T10:44:43.670Z,26.39
2022-09-04T10:47:48.719Z,26.20
2022-09-04T10:50:55.482Z,26.09
2022-09-04T10:54:22.373Z,26.42
2022-09-04T10:57:52.191Z,26.68
2022-09-04T11:01:27.358Z,26.50
2022-09-04T11:04:59.847Z,26.35
2022-09-04T11:08:37.009Z,26.85
2022-09-04T11:12:09.562Z,27.45
2022-09-04T11:15:30.299Z,26.47
2022-09-04T11:19:08.282Z,27.02
2022-09-04T11:22:47.946Z,27.35
2022-09-04T11:26:09.209Z,27.57
2022-09-04T11:29:41.293Z,28.11
2022-09-04T11:33:00.961Z,28.22
2022-09-04T11:36:36.732Z,27.89
2022-09-04T11:40:06.439Z,28.15
2022-09-04T11:43:36.839Z,28.23
2022-09-04T11:46:47.233Z,28.19
2022-09-04T11:50:20.193Z,28.52
2022-09-04T11:53:52.898Z,28.04
2022-09-04T11:57:37.026Z,28.18
2022-09-04T12:01:02.321Z,28.62
2022-09-04T12:04:33.921Z,29.01
2022-09-04T12:08:13.034Z,28.88
2022-09-04T12:12:02.552Z,28.94
2022-09-04T12:15:16.160Z,29.27
2022-09-04T12:18:37.005Z,29.54
2022-09-04T12:21:41.078Z,29.35
2022-09-04T12:24:49.144Z,29.17
2022-09-04T12:28:18.914Z,29.23
2022-09-04T12:31:42.443Z,29.59
2022-09-04T12:35:06.709Z,29.25
2022-09-04T12:38:15.239Z,29.16
2022-09-04T12:41:31.246Z,29.00
2022-09-04T12:44:54.442Z,28.52
2022-09-04T12:48:14.959Z,28.91
2022-09-04T12:51:21.373Z,29.09
2022-09-04T12:54:39.268Z,28.79
2022-09-04T12:58:05.789Z,29.13
2022-09-04T13:01:19.505Z,29.28
2022-09-04T13:04:27.889Z,28.37
2022-09-04T13:07:33.660Z,29.38
2022-09-04T13:11:00.946Z,29.73
2022-09-04T13:14:38.063Z,29.44
2022-09-04T13:18:08.665Z,29.36
2022-09-04T13:21:28.723Z,30.12
2022-09-04T13:24:59.535Z,30.13
2022-09-04T13:28:30.318Z,29.53
2022-09-04T13:32:00.921Z,29.98
2022-09-04T13:35:15.932Z,29.67
2022-09-04T13:38:48.697Z,29.69
2022-09-04T13:41:50.906Z,29.72
2022-09-04T13:45:05.881Z,29.91
2022-09-04T13:48:13.386Z,30.25
2022-09-04T13:51:23.424Z,29.89
2022-09-04T13:54:33.360Z,30.22
2022-09-04T13:57:57.809Z,29.74
2022-09-04T14:01:03.226Z,30.08
2022-09-04T14:04:11.432Z,30.43
2022-09-04T14:07:31.902Z,30.24
2022-09-04T14:10:48.916Z,30.36
2022-09-04T14:14:18.633Z,29.75
2022-09-04T14:17:26.893Z,30.31
2022-09-04T14:21:01.172Z,30.82
2022-09-04T14:24:34.194Z,30.80
2022-09-04T14:27:54.353Z,30.61
2022-09-04T14:31:10.811Z,30.31
2022-09-04T14:34:16.095Z,30.41
2022-09-04T14:37:48.504Z,29.74
2022-09-04T14:41:17.562Z,30.65
2022-09-04T14:44:28.063Z,30.82
2022-09-04T14:47:35.853Z,30.91
2022-09-04T14:50:50.733Z,30.92
2022-09-04T14:53:56.071Z,30.74
2022-09-04T14:57:02.453Z,30.74
2022-09-04T15:00:17.412Z,30.41
2022-09-04T15:03:26.448Z,30.39
2022-09-04T15:06:54.670Z,30.86
2022-09-04T15:10:14.082Z,30.71
2022-09-04T15:13:27.674Z,30.59
2022-09-04T15:16:46.651Z,30.58
2022-09-04T15:19:59.913Z,30.68
2022-09-04T15:23:11.792Z,30.34
2022-09-04T15:26:50.390Z,31.09
2022-09-04T15:29:52.278Z,31.27
2022-09-04T15:33:23.648Z,31.39
2022-09-04T15:36:27.557Z,30.69
2022-09-04T15:39:38.492Z,30.22
2022-09-04T15:42:56.677Z,30.89
2022-09-04T15:46:11.550Z,31.25
2022-09-04T15:49:19.069Z,31.04
2022-09-04T15:52:44.706Z,30.86
2022-09-04T15:55:48.538Z,30.63
2022-09-04T15:59:18.227Z,30.75
2022-09-04T16:02:40.646Z,30.70
2022-09-04T16:05:49.222Z,30.98
2022-09-04T16:09:08.316Z,30.86
2022-09-04T16:12:20.656Z,30.72
2022-09-04T16:15:33.936Z,30.57
2022-09-04T16:18:38.435Z,29.97
2022-09-04T16:21:44.588Z,29.96
2022-09-04T16:24:48.914Z,29.93
2022-09-04T16:27:57.132Z,29.94
2022-09-04T16:31:23.246Z,29.69
2022-09-04T16:34:32.493Z,29.59
2022-09-04T16:37:50.232Z,29.63
2022-09-04T16:41:17.980Z,29.80
2022-09-04T16:44:34.434Z,29.77
2022-09-04T16:47:56.751Z,29.59
2022-09-04T16:51:40.130Z,29.38
2022-09-04T16:54:53.349Z,29.10
2022-09-04T16:58:35.081Z,28.52
2022-09-04T17:01:53.623Z,28.40
2022-09-04T17:05:34.813Z,28.15
2022-09-04T17:08:46.596Z,28.34
2022-09-04T17:12:00.505Z,28.34
2022-09-04T17:15:21.349Z,28.08
2022-09-04T17:18:25.185Z,27.86
2022-09-04T17:25:21.003Z,28.04
2022-09-04T17:28:56.418Z,27.50
2022-09-04T17:29:29.527Z,27.09
2022-09-04T17:34:54.552Z,26.87
2022-09-04T17:40:49.260Z,26.27
2022-09-04T17:40:50.972Z,26.59
2022-09-04T17:43:28.514Z,25.87
2022-09-04T17:46:44.342Z,25.56
2022-09-04T17:49:50.823Z,25.47
2022-09-04T17:53:08.214Z,25.32
2022-09-04T17:56:45.873Z,25.27
2022-09-04T17:59:53.493Z,25.00
2022-09-04T18:03:01.637Z,24.83
2022-09-04T18:06:09.005Z,24.70
2022-09-04T18:09:27.548Z,24.18
2022-09-04T18:12:37.104Z,23.89
2022-09-04T18:15:57.827Z,23.54
2022-09-04T18:19:17.080Z,23.46
2022-09-04T18:22:33.277Z,23.23
2022-09-04T18:25:44.278Z,23.21
2022-09-04T18:28:55.398Z,22.97
2022-09-04T18:37:23.716Z,22.78
2022-09-04T18:37:24.176Z,22.86
2022-09-04T18:39:49.001Z,22.51
2022-09-04T18:50:39.755Z,22.54
2022-09-04T18:50:42.917Z,22.53
2022-09-04T18:50:44.412Z,22.23
2022-09-04T18:54:08.418Z,22.27
2022-09-04T18:57:48.147Z,22.18
2022-09-04T19:00:56.729Z,22.09
2022-09-04T19:04:19.433Z,22.03
2022-09-04T19:07:32.644Z,21.92
2022-09-04T19:10:43.349Z,21.68
2022-09-04T19:14:09.929Z,21.64
2022-09-04T19:17:24.641Z,21.54
2022-09-04T19:20:36.909Z,21.43
2022-09-04T19:23:54.847Z,21.40
2022-09-04T19:26:56.748Z,21.58
2022-09-04T19:30:20.080Z,21.68
2022-09-04T19:33:39.835Z,21.87
2022-09-04T19:36:51.530Z,21.91
2022-09-04T19:46:01.523Z,21.62
2022-09-04T19:46:08.158Z,21.45
2022-09-04T19:47:28.464Z,21.23
2022-09-04T19:53:19.481Z,21.05
2022-09-04T19:54:01.933Z,21.24
2022-09-04T19:57:34.012Z,21.30
2022-09-04T20:00:55.034Z,22.07
2022-09-04T20:04:04.303Z,22.06
2022-09-04T20:07:11.173Z,22.43
2022-09-04T20:10:55.115Z,22.59
2022-09-04T20:14:13.605Z,22.75
2022-09-04T20:17:27.498Z,22.71
2022-09-04T20:20:36.352Z,22.74
2022-09-04T20:24:19.834Z,22.75
2022-09-04T20:27:29.012Z,22.85
2022-09-04T20:30:32.884Z,22.46
2022-09-04T20:33:38.482Z,22.10
2022-09-04T20:36:49.004Z,21.56
2022-09-04T20:40:05.336Z,21.39
2022-09-04T20:43:31.700Z,21.07
2022-09-04T20:52:42.142Z,20.89
2022-09-04T20:52:49.298Z,20.56
2022-09-04T20:54:14.733Z,20.48
2022-09-04T21:01:16.328Z,20.31
2022-09-04T21:03:17.249Z,20.26
2022-09-04T21:04:43.834Z,20.27
2022-09-04T21:07:54.142Z,20.26
2022-09-04T21:11:04.125Z,20.17
2022-09-04T21:14:45.825Z,19.99
2022-09-04T21:18:14.365Z,19.84
2022-09-04T21:21:41.399Z,19.78
2022-09-04T21:25:03.415Z,19.65
2022-09-04T21:28:29.896Z,19.70
2022-09-04T21:31:47.196Z,19.72
2022-09-04T21:35:14.308Z,19.85
2022-09-04T21:38:56.997Z,19.78
2022-09-04T21:41:58.989Z,19.79
2022-09-04T21:45:22.544Z,19.49
2022-09-04T21:48:42.864Z,19.51
2022-09-04T21:52:09.122Z,19.58
2022-09-04T21:59:36.703Z,19.60
2022-09-04T22:02:26.823Z,19.51
2022-09-04T22:03:05.617Z,19.54
2022-09-04T22:06:47.363Z,19.42
2022-09-04T22:13:33.108Z,19.28
2022-09-04T22:14:03.319Z,19.55
2022-09-04T22:17:50.922Z,19.70
2022-09-04T22:21:04.395Z,20.10
2022-09-04T22:24:21.384Z,20.03
2022-09-04T22:27:25.877Z,20.04
2022-09-04T22:30:38.854Z,19.99
2022-09-04T22:34:15.062Z,19.75
2022-09-04T22:37:53.137Z,19.68
2022-09-04T22:41:26.607Z,19.72
2022-09-04T22:45:06.871Z,19.85
2022-09-04T22:48:40.892Z,19.86
2022-09-04T22:52:13.312Z,19.95
2022-09-04T22:55:40.609Z,19.78
2022-09-04T22:59:25.879Z,19.84
2022-09-04T23:03:06.695Z,19.72
2022-09-04T23:10:26.785Z,19.53
2022-09-04T23:13:52.517Z,19.44
2022-09-04T23:14:05.371Z,19.39
2022-09-04T23:17:25.220Z,19.32
2022-09-04T23:23:53.481Z,19.14
2022-09-04T23:26:42.065Z,19.07
2022-09-04T23:28:51.855Z,19.05
2022-09-04T23:32:06.924Z,18.91
2022-09-04T23:35:26.421Z,18.79
2022-09-04T23:39:05.854Z,18.76
2022-09-04T23:42:25.817Z,18.62
2022-09-04T23:45:57.890Z,18.67
2022-09-04T23:49:38.092Z,18.75
2022-09-04T23:52:55.529Z,18.62
2022-09-04T23:56:16.302Z,18.48
2022-09-04T23:59:37.994Z,18.44
